Bodega Marine Reserve, California Weather observations

Data are for 10 minute period ending at time listed.
 Day   Time   Solar   Ave.   Ave.  Ave.  Vector  Max.   Baro.   Total    
  of    of     Rad.   Air    Rel.  Wind   Wind   Wind  Press.  Precip.   
Year   Day            Temp.  Hum.  Speed  Dir.   Gust                    
2016   (PST)  Kw/m2    F      %     mph   deg.    mph    mb.     in.     
-------------------------------------------------------------------------
 341    3:10   0.00   47.0    56   16.4   313    21.6   1014.9    0.00 
 341    3:20   0.00   47.0    59   14.1   318    21.3   1014.9    0.00 
 341    3:30   0.00   46.5    62   11.2   328    18.6   1014.9    0.00 
 341    3:40   0.00   45.4    64   10.2   327    18.9   1014.9    0.00 
 341    3:50   0.00   45.5    63   11.7   328    18.6   1014.9    0.00 
 341    4:00   0.00   45.5    63   12.2   323    17.7   1014.9    0.00 
 341    4:10   0.00   45.4    63   12.1   320    16.2   1014.9    0.00 
 341    4:20   0.00   44.9    65   10.4   324    16.5   1014.9    0.00 
 341    4:30   0.00   44.3    66   10.5   325    13.4   1015.2    0.00 
 341    4:40   0.00   43.9    66    9.9   326    13.7   1015.2    0.00 
 341    4:50   0.00   44.0    65   10.1   324    13.4   1015.2    0.00 
 341    5:00   0.00   44.2    64    9.6   327    13.4   1015.2    0.00 
 341    5:10   0.00   43.0    66    7.8   331    10.9   1015.6    0.00 
 341    5:20   0.00   42.5    66    7.1   335     8.7   1015.6    0.00 
 341    5:30   0.00   42.3    66    7.4   330    10.7   1015.6    0.00 
 341    5:40   0.00   42.2    66    6.6   338     9.6   1015.2    0.00 
 341    5:50   0.00   42.0    67    6.7   346    10.0   1015.2    0.00 
 341    6:00   0.00   41.7    67    5.3     0     8.0   1015.2    0.00 
 341    6:10   0.00   40.2    69    4.9   350     6.4   1015.2    0.00 
 341    6:20   0.00   39.8    70    5.8   336     8.7   1015.2    0.00 
 341    6:30   0.00   41.1    70    6.1   338     9.6   1015.2    0.00 
 341    6:40   0.00   43.8    69    8.7   335    15.2   1015.2    0.00 
 341    6:50   0.00   44.0    69    6.4   343    10.9   1015.2    0.00 
 341    7:00   0.00   44.2    69    6.8   349     9.9   1015.2    0.00 
 341    7:10   0.00   44.4    68    6.7   348    11.5   1015.2    0.00 
 341    7:20   0.00   43.8    69    6.0   343     8.0   1015.6    0.00 
 341    7:30   0.00   43.7    71    6.7   335     9.4   1015.6    0.00 
 341    7:40   0.00   43.6    71    5.8   335     7.5   1015.6    0.00 
 341    7:50   0.00   43.8    72    7.0   326    10.2   1015.6    0.00 
 341    8:00   0.00   45.0    70    7.3   324    10.4   1015.6    0.00 
 341    8:10   0.00   44.8    71    6.4   337     9.3   1015.6    0.00 
 341    8:20   0.00   43.4    72    5.9   340     7.2   1015.6    0.00 
 341    8:30   0.00   42.4    74    6.2   339     7.4   1015.6    0.00 
 341    8:40   0.01   41.9    75    5.9   342     6.9   1015.9    0.00 
 341    8:50   0.04   42.3    75    4.8   340     5.9   1015.9    0.00 
 341    9:00   0.06   43.5    75    4.4   334     5.6   1015.9    0.00 
 341    9:10   0.07   44.8    74    4.2   337     5.9   1015.9    0.00 
 341    9:20   0.07   45.4    73    4.2   338     6.6   1016.3    0.00 
 341    9:30   0.09   46.0    73    4.4   338     6.7   1016.3    0.00 
 341    9:40   0.12   47.0    71    3.8   341     5.6   1016.6    0.00 
 341    9:50   0.13   47.7    69    4.2   331     6.8   1016.6    0.00 
 341   10:00   0.16   48.3    68    4.6   338     6.4   1016.6    0.00 
 341   10:10   0.12   48.7    68    4.5   320     6.3   1016.9    0.00 
 341   10:20   0.15   49.1    67    5.9   310     8.0   1016.9    0.00 
 341   10:30   0.19   49.6    67    6.8   301     9.1   1016.9    0.00 
 341   10:40   0.16   49.7    67    7.0   302     9.3   1017.3    0.00 
 341   10:50   0.17   49.7    68    7.2   297     9.9   1017.3    0.00 
 341   11:00   0.24   50.3    67    7.9   292    11.3   1017.3    0.00 
 341   11:10   0.34   51.0    66    8.3   291    12.6   1017.3    0.00 
 341   11:20   0.39   52.3    64    9.4   295    13.9   1017.6    0.00 
 341   11:30   0.28   52.0    63    9.1   304    13.1   1017.6    0.00 
 341   11:40   0.37   51.8    63    8.8   309    12.3   1017.3    0.00 
 341   11:50   0.40   52.2    63    9.0   301    12.9   1017.3    0.00 
 341   12:00   0.40   52.4    63    9.8   291    13.0   1017.3    0.00 
 341   12:10   0.41   52.4    63    9.0   290    12.3   1017.3    0.00 
 341   12:20   0.42   52.5    64    9.4   289    12.3   1016.9    0.00 
 341   12:30   0.43   52.9    64    9.7   285    13.0   1016.9    0.00 
 341   12:40   0.44   52.6    64   10.4   290    14.0   1016.9    0.00 
 341   12:50   0.45   52.8    64   10.6   286    13.9   1016.9    0.00 
 341   13:00   0.41   52.8    65   10.7   287    14.5   1016.9    0.00 
 341   13:10   0.48   53.3    64   11.2   283    15.6   1016.6    0.00 
 341   13:20   0.45   53.1    64   11.8   282    15.3   1016.6    0.00 
 341   13:30   0.45   53.3    64   11.4   285    15.9   1016.3    0.00 
 341   13:40   0.41   53.2    65   11.2   286    14.7   1016.3    0.00 
 341   13:50   0.44   53.5    64   11.4   288    15.2   1016.6    0.00 
 341   14:00   0.41   53.5    66   10.2   284    14.5   1016.3    0.00 
 341   14:10   0.39   52.9    66   11.3   281    14.5   1016.3    0.00 
 341   14:20   0.43   53.2    65   11.7   281    15.3   1016.3    0.00 
 341   14:30   0.52   53.9    63   12.2   281    16.7   1016.3    0.00 
 341   14:40   0.54   54.7    62   13.4   293    17.8   1016.3    0.00 
 341   14:50   0.21   53.3    62   13.8   298    19.3   1016.3    0.00 
 341   15:00   0.14   51.5    66   15.6   296    20.0   1015.9    0.00 
 341   15:10   0.14   51.0    67   14.7   296    19.7   1015.9    0.00 
 341   15:20   0.20   51.5    65   14.7   297    20.6   1015.9    0.00 
 341   15:30   0.18   51.1    66   14.6   298    18.8   1016.3    0.00 
 341   15:40   0.36   52.3    64   15.1   300    20.7   1016.3    0.00 
 341   15:50   0.29   53.1    62   14.2   302    19.9   1016.3    0.00 
 341   16:00   0.24   51.9    63   16.0   297    21.5   1016.3    0.00 
 341   16:10   0.22   51.5    65   15.0   296    21.0   1016.3    0.00 
 341   16:20   0.20   51.5    63   15.9   299    20.9   1016.3    0.00 
 341   16:30   0.18   51.2    64   14.8   300    20.6   1016.3    0.00 
 341   16:40   0.16   51.2    64   14.9   304    21.6   1016.3    0.00 
 341   16:50   0.14   50.8    65   14.8   306    21.9   1016.3    0.00 
 341   17:00   0.09   50.4    67   14.0   306    22.5   1016.3    0.00 
 341   17:10   0.09   50.0    68   14.4   304    20.0   1016.3    0.00 
 341   17:20   0.03   49.5    70   14.9   303    21.9   1015.9    0.00 
 341   17:30   0.01   49.0    70   15.9   301    20.8   1015.9    0.00 
 341   17:40   0.01   48.8    70   15.2   300    21.6   1015.9    0.00 
 341   17:50   0.00   48.7    70   16.2   301    22.2   1015.9    0.00 
 341   18:00   0.00   48.7    71   15.5   304    21.5   1015.9    0.00 
 341   18:10   0.00   48.8    71   16.2   306    22.4   1015.9    0.00 
 341   18:20   0.00   48.7    71   16.1   305    24.8   1015.9    0.00 
 341   18:30   0.00   48.6    70   16.4   306    22.4   1015.9    0.00 
 341   18:40   0.00   48.5    70   18.1   306    23.9   1016.3    0.00 
 341   18:50   0.00   48.5    69   17.0   309    25.1   1016.3    0.00 
 341   19:00   0.00   48.7    68   17.8   313    23.9   1016.3    0.00 
 341   19:10   0.00   48.6    67   17.2   314    24.5   1016.3    0.00 
 341   19:20   0.00   48.6    68   17.3   311    23.1   1016.3    0.00 
 341   19:30   0.00   48.5    69   17.5   313    24.6   1016.3    0.00 
 341   19:40   0.00   48.4    68   16.9   316    22.4   1016.3    0.00 
 341   19:50   0.00   48.3    68   14.4   322    20.2   1016.3    0.00 
 341   20:00   0.00   47.8    69   13.1   319    19.1   1016.3    0.00 
 341   20:10   0.00   47.6    69   13.6   315    17.0   1016.3    0.00 
 341   20:20   0.00   47.3    70   12.8   312    16.8   1016.3    0.00 
 341   20:30   0.00   47.2    71   12.3   312    17.1   1016.3    0.00 
 341   20:40   0.00   47.2    72   12.1   312    15.5   1016.3    0.00 
 341   20:50   0.00   47.0    72   10.4   314    14.8   1016.3    0.00 
 341   21:00   0.00   46.8    72    9.0   316    14.8   1016.3    0.00 
 341   21:10   0.00   46.0    73    6.0   327     8.6   1016.6    0.00 
 341   21:20   0.00   44.8    74    5.4   323     6.8   1016.6    0.00 
 341   21:30   0.00   44.0    75    4.0   322     5.8   1016.3    0.00 
 341   21:40   0.00   43.2    75    2.5    53     4.0   1016.6    0.00 
 341   21:50   0.00   42.5    76    1.7   123     2.6   1016.6    0.00 
 341   22:00   0.00   42.5    77    0.9   146     1.8   1016.6    0.00 
 341   22:10   0.00   41.9    74    0.2   330     0.7   1016.6    0.00 
 341   22:20   0.00   40.2    78    0.6    14     2.3   1016.6    0.00 
 341   22:30   0.00   41.8    77    0.8   191     1.8   1016.6    0.00 
 341   22:40   0.00   39.3    75    0.0   192     0.6   1016.6    0.00 
 341   22:50   0.00   39.4    79    1.4   290     2.0   1016.6    0.00 
 341   23:00   0.00   40.5    76    0.6   347     1.7   1016.6    0.00 
 341   23:10   0.00   41.1    76    0.2    78     1.5   1016.9    0.00 
 341   23:20   0.00   40.5    75    1.8   127     3.2   1016.9    0.00 
 341   23:30   0.00   39.8    77    0.6    34     1.2   1016.9    0.00 
 341   23:40   0.00   39.8    80    0.8   340     1.6   1016.9    0.00 
 341   23:50   0.00   41.2    82    0.2    32     1.2   1017.3    0.00 
 342    0:00   0.00   41.1    81    0.0     0     0.0   1017.3    0.00 
 342    0:10   100.00  99999.0   99999  99999.0   99999   99999.0   99999.0   99999.00 
 342    0:20   100.00  99999.0   99999  99999.0   99999   99999.0   99999.0   99999.00 
 342    0:30   100.00  99999.0   99999  99999.0   99999   99999.0   99999.0   99999.00 
 342    0:40   100.00  99999.0   99999  99999.0   99999   99999.0   99999.0   99999.00 
 342    0:50   100.00  99999.0   99999  99999.0   99999   99999.0   99999.0   99999.00 
 342    1:00   0.00   41.0    82    3.0   154     3.7   1017.6    0.00 
 342    1:10   100.00  99999.0   99999  99999.0   99999   99999.0   99999.0   99999.00 
 342    1:20   100.00  99999.0   99999  99999.0   99999   99999.0   99999.0   99999.00 
 342    1:30   100.00  99999.0   99999  99999.0   99999   99999.0   99999.0   99999.00 
 342    1:40   100.00  99999.0   99999  99999.0   99999   99999.0   99999.0   99999.00 
 342    1:50   100.00  99999.0   99999  99999.0   99999   99999.0   99999.0   99999.00 
 342    2:00   0.00   39.8    82    2.4   125     3.4   1017.6    0.00 
 342    2:10   0.00   39.4    83    2.8   140     4.1   1017.6    0.00 
 342    2:20   0.00   39.8    83    4.0   145     5.1   1017.3    0.00 
 342    2:30   0.00   40.1    82    3.0   131     4.4   1017.3    0.00 
 342    2:40   0.00   40.2    82    2.5   103     4.2   1017.3    0.00 
 342    2:50   0.00   40.8    82    3.3   122     4.9   1017.3    0.00 
 342    3:00   0.00   41.0    81    4.1   121     6.9   1017.6    0.00 

Return to Bodega Marine Reserve graphs page.


Western Regional Climate Center,wrcc@dri.edu